Impacts TAF Board INFO
FOR SITUATIONAL AWARENESS. NOT TO BE USED FOR FLIGHT PLANNING PURPOSES.
IDs:

KPHX - Phoenix/Sky Harbor, AZ, US

Issued at 0234 UTC 17 Jul 2018
Updated at 0343 UTC 17 Jul 2018
Potential Impact None Slight Moderate High
Time<<18/04Z 18/05Z 18/06Z 18/07Z 18/08Z 18/09Z 18/10Z 18/11Z 18/12Z 18/13Z 18/14Z 18/15Z 18/16Z
Type PRVL PRVL
VIS >6 >6
CIG 250 250
Cover BKN BKN
FltCat VFR VFR
WX VCTS VCTS
WDir 140 140
WSpd 10 10
WGst 20 20

Raw TAF
KPHX 170234Z 1703/1806 VRB04KT P6SM SCT090 BKN170 BKN250
  FM170330 12015G25KT P6SM BKN090 BKN170 BKN250
  FM170600 10008KT P6SM SCT090 BKN150 BKN250
  FM171900 25006KT P6SM FEW110 SCT250
  FM180400 14010G20KT P6SM VCTS SCT100CB BKN250


METAR Board
Radar Display
Forecast Discussion

FOR SITUATIONAL AWARENESS. NOT TO BE USED FOR FLIGHT PLANNING PURPOSES.